Time;durP1;ratioP1;P1;durP2;ratioP2;P2;SDS_P1;SDS_P2;PMS_P1;PMS_P2;Temp;Humidity;BMP_temperature;BMP_pressure;BME280_temperature;BME280_humidity;BME280_pressure;Samples;Min_cycle;Max_cycle;Signal;HPM_P1;HPM_P2
2021/04/15 00:02:27;;;;;;;2.72;1.88;;;4.70;77.10;;;;;;4901601;29;20040;-74
2021/04/15 00:04:53;;;;;;;4.75;2.00;;;4.70;77.10;;;;;;4898636;29;20060;-74
2021/04/15 00:07:18;;;;;;;5.70;2.13;;;4.70;77.10;;;;;;4896917;29;20042;-73
2021/04/15 00:09:44;;;;;;;3.88;1.70;;;4.70;77.00;;;;;;4899063;29;20064;-73
2021/04/15 00:12:10;;;;;;;4.43;2.03;;;4.70;77.10;;;;;;4897990;29;20028;-73
2021/04/15 00:14:35;;;;;;;3.53;1.92;;;4.60;77.10;;;;;;4903828;29;20044;-73
2021/04/15 00:17:01;;;;;;;5.03;2.53;;;4.60;77.10;;;;;;4886363;29;20029;-73
2021/04/15 00:19:26;;;;;;;3.25;2.03;;;4.60;77.20;;;;;;4897174;29;20136;-73
2021/04/15 00:21:52;;;;;;;2.40;2.00;;;4.50;77.20;;;;;;4898067;29;20075;-73
2021/04/15 00:24:18;;;;;;;4.18;2.28;;;4.50;77.20;;;;;;4891249;29;20057;-73
2021/04/15 00:26:43;;;;;;;3.50;2.25;;;4.40;77.30;;;;;;4873700;29;20096;-74
2021/04/15 00:29:09;;;;;;;3.53;1.92;;;4.40;77.40;;;;;;4899833;29;20021;-73
2021/04/15 00:31:35;;;;;;;7.22;2.60;;;4.40;77.50;;;;;;4897291;29;20038;-73
2021/04/15 00:34:01;;;;;;;6.75;2.55;;;4.40;77.70;;;;;;4898419;29;20056;-74
2021/04/15 00:36:27;;;;;;;5.70;2.25;;;4.40;77.70;;;;;;4895849;29;20486;-74
2021/04/15 00:38:54;;;;;;;4.95;2.30;;;4.30;77.60;;;;;;4896108;29;20032;-74
2021/04/15 00:41:21;;;;;;;6.10;2.42;;;4.30;77.70;;;;;;4897253;29;20036;-74
2021/04/15 00:43:47;;;;;;;3.75;2.30;;;4.30;77.80;;;;;;4910180;29;20087;-74
2021/04/15 00:46:51;;;;;;;4.00;2.28;;;4.30;77.80;;;;;;4901242;29;20032;-73
2021/04/15 00:49:33;;;;;;;4.35;2.17;;;4.30;78.00;;;;;;4899647;29;20031;-73
2021/04/15 00:52:03;;;;;;;3.47;2.20;;;4.30;78.00;;;;;;4897578;29;20040;-73
2021/04/15 00:54:37;;;;;;;4.88;2.33;;;4.30;77.90;;;;;;4902431;29;20084;-73
2021/04/15 00:57:07;;;;;;;10.00;2.88;;;4.20;78.00;;;;;;4907342;29;20355;-74
2021/04/15 00:59:33;;;;;;;3.88;2.67;;;4.20;77.90;;;;;;4898187;29;20064;-73
2021/04/15 01:01:59;;;;;;;4.40;2.72;;;4.20;78.10;;;;;;4896958;29;20517;-73
2021/04/15 01:04:25;;;;;;;5.88;2.58;;;4.20;78.10;;;;;;4910534;29;20036;-74
2021/04/15 01:06:51;;;;;;;5.07;2.50;;;4.20;78.10;;;;;;4908520;29;20067;-73
2021/04/15 01:09:17;;;;;;;5.72;2.17;;;4.10;78.20;;;;;;4880114;29;20064;-73
2021/04/15 01:12:01;;;;;;;3.58;2.80;;;4.10;78.40;;;;;;4881481;29;20035;-73
2021/04/15 01:14:46;;;;;;;9.48;3.05;;;4.10;78.50;;;;;;4894824;29;20055;-73
2021/04/15 01:17:30;;;;;;;6.32;3.15;;;4.10;78.60;;;;;;4895197;29;20574;-73
2021/04/15 01:20:20;;;;;;;6.13;3.20;;;4.10;78.70;;;;;;4890696;29;20103;-73
2021/04/15 01:23:07;;;;;;;4.68;2.50;;;4.10;78.70;;;;;;4895346;29;20032;-73
2021/04/15 01:25:56;;;;;;;5.93;2.65;;;4.10;78.70;;;;;;4909775;29;20084;-73
2021/04/15 01:28:22;;;;;;;5.63;2.65;;;4.00;78.70;;;;;;4901907;29;20083;-74
2021/04/15 01:31:01;;;;;;;6.70;2.42;;;4.00;78.70;;;;;;4896452;29;20490;-73
2021/04/15 01:33:32;;;;;;;;;;;4.00;78.90;;;;;;4906014;29;20146;-73
2021/04/15 01:36:07;;;;;;;5.20;2.58;;;3.90;78.70;;;;;;4902956;29;20017;-73
2021/04/15 01:38:42;;;;;;;5.63;2.90;;;3.90;78.80;;;;;;4890164;29;20044;-73
2021/04/15 01:41:25;;;;;;;7.43;2.90;;;3.80;78.80;;;;;;4900223;29;20039;-73
2021/04/15 01:44:14;;;;;;;3.72;2.70;;;3.80;79.00;;;;;;4881769;29;20416;-73
2021/04/15 01:46:39;;;;;;;;;;;3.80;79.10;;;;;;4892925;29;20056;-73
2021/04/15 01:49:08;;;;;;;4.40;2.67;;;3.80;78.90;;;;;;4901647;29;19954;-73
2021/04/15 01:51:47;;;;;;;5.70;2.67;;;3.70;79.00;;;;;;4899967;29;20025;-73
2021/04/15 01:54:27;;;;;;;;;;;3.70;79.10;;;;;;4900888;29;20037;-73
2021/04/15 01:56:52;;;;;;;;;;;3.70;78.90;;;;;;4914674;29;19912;-73
2021/04/15 01:59:24;;;;;;;3.70;2.47;;;3.60;79.00;;;;;;4900615;29;19998;-74
2021/04/15 02:01:55;;;;;;;4.05;2.60;;;3.60;79.80;;;;;;4902406;29;20043;-73
2021/04/15 02:04:30;;;;;;;5.73;2.70;;;3.60;79.30;;;;;;4915674;29;20048;-74
2021/04/15 02:07:09;;;;;;;5.28;2.78;;;3.50;79.40;;;;;;4880155;29;20037;-73
2021/04/15 02:09:37;;;;;;;4.38;3.10;;;3.50;79.40;;;;;;4897764;29;20031;-73
2021/04/15 02:12:11;;;;;;;4.55;3.25;;;3.50;80.00;;;;;;4917465;29;20057;-73
2021/04/15 02:14:40;;;;;;;4.35;3.00;;;3.50;79.50;;;;;;4908157;29;20028;-73
2021/04/15 02:17:09;;;;;;;5.57;3.30;;;3.50;79.40;;;;;;4908906;29;20028;-73
2021/04/15 02:19:55;;;;;;;6.72;2.80;;;3.50;79.50;;;;;;4903153;29;20036;-73
2021/04/15 02:22:36;;;;;;;5.90;3.08;;;3.50;79.60;;;;;;4900743;29;20032;-73
2021/04/15 02:25:29;;;;;;;4.28;2.95;;;3.50;79.50;;;;;;4905618;29;20036;-73
2021/04/15 02:28:17;;;;;;;5.22;2.90;;;3.50;79.60;;;;;;4902047;29;20032;-73
2021/04/15 02:31:15;;;;;;;5.97;3.30;;;3.40;79.50;;;;;;4905733;29;20056;-73
2021/04/15 02:33:46;;;;;;;7.75;3.35;;;3.40;79.60;;;;;;4907703;29;20293;-73
2021/04/15 02:36:13;;;;;;;4.70;3.08;;;3.30;79.50;;;;;;4897680;29;20120;-73
2021/04/15 02:38:53;;;;;;;5.45;3.10;;;3.30;79.50;;;;;;4905404;29;20559;-73
2021/04/15 02:41:23;;;;;;;6.70;3.15;;;3.30;79.70;;;;;;4898496;29;20123;-73
2021/04/15 02:43:55;;;;;;;5.53;2.75;;;3.20;79.70;;;;;;4898719;29;20037;-73
2021/04/15 02:46:39;;;;;;;5.45;2.95;;;3.20;79.80;;;;;;4909594;29;20047;-73
2021/04/15 02:49:08;;;;;;;6.68;3.35;;;3.20;80.00;;;;;;4905433;29;20106;-73
2021/04/15 02:52:02;;;;;;;4.05;3.33;;;3.20;79.90;;;;;;4897808;29;20040;-73
2021/04/15 02:54:41;;;;;;;5.78;3.30;;;3.20;80.20;;;;;;4901131;29;20749;-73
2021/04/15 02:57:41;;;;;;;6.85;3.25;;;3.20;80.30;;;;;;4918042;29;20024;-73
2021/04/15 03:00:13;;;;;;;8.68;3.13;;;3.10;80.30;;;;;;4906442;29;20028;-73
2021/04/15 03:02:43;;;;;;;4.78;2.95;;;3.10;80.30;;;;;;4901094;29;20024;-73
2021/04/15 03:05:17;;;;;;;5.25;3.28;;;3.10;80.30;;;;;;4896880;29;20044;-73
2021/04/15 03:07:44;;;;;;;5.72;3.22;;;3.10;80.30;;;;;;4898714;29;20029;-73
2021/04/15 03:10:15;;;;;;;5.10;3.17;;;3.10;80.30;;;;;;4910423;29;20111;-73
2021/04/15 03:12:46;;;;;;;6.10;3.20;;;3.10;80.40;;;;;;4887993;29;20431;-73
2021/04/15 03:15:25;;;;;;;8.93;4.13;;;3.10;80.40;;;;;;4901606;29;20031;-73
2021/04/15 03:17:56;;;;;;;6.78;3.45;;;3.10;80.50;;;;;;4903531;29;20028;-73
2021/04/15 03:20:35;;;;;;;6.65;3.50;;;3.00;80.40;;;;;;4881584;29;20032;-73
2021/04/15 03:23:09;;;;;;;6.85;3.13;;;3.00;80.60;;;;;;4901814;29;20056;-73
2021/04/15 03:25:35;;;;;;;5.88;3.50;;;3.00;80.60;;;;;;4898128;29;20121;-73
2021/04/15 03:28:07;;;;;;;6.93;3.90;;;3.00;80.70;;;;;;4904481;29;20056;-73
2021/04/15 03:30:43;;;;;;;7.13;3.75;;;3.00;80.70;;;;;;4897408;29;20029;-73
2021/04/15 03:33:29;;;;;;;6.88;3.70;;;3.00;80.70;;;;;;4898001;29;20024;-73
2021/04/15 03:36:12;;;;;;;7.35;3.83;;;3.00;80.70;;;;;;4898609;29;20061;-73
2021/04/15 03:38:53;;;;;;;6.43;3.75;;;3.00;80.80;;;;;;4903422;29;20511;-73
2021/04/15 03:41:26;;;;;;;9.48;4.18;;;2.90;80.90;;;;;;4908015;29;20028;-73
2021/04/15 03:44:33;;;;;;;6.53;3.83;;;2.90;80.90;;;;;;4903949;29;20059;-73
2021/04/15 03:47:06;;;;;;;11.43;4.00;;;2.90;81.10;;;;;;4857400;29;20137;-73
2021/04/15 03:49:43;;;;;;;12.65;4.18;;;2.90;81.00;;;;;;4858814;29;20487;-73
2021/04/15 03:52:28;;;;;;;7.78;3.75;;;2.90;81.20;;;;;;4888591;29;20054;-74
2021/04/15 03:55:19;;;;;;;8.25;3.58;;;2.90;81.10;;;;;;4897720;29;20148;-73
2021/04/15 03:57:47;;;;;;;9.63;4.30;;;2.90;81.20;;;;;;4897557;29;20056;-73
2021/04/15 04:00:24;;;;;;;7.68;4.00;;;2.90;81.20;;;;;;4896825;29;20039;-73
2021/04/15 04:02:55;;;;;;;9.48;4.25;;;2.90;81.20;;;;;;4896643;29;20498;-73
2021/04/15 04:05:21;;;;;;;5.97;3.92;;;2.90;81.30;;;;;;4906802;29;20139;-73
2021/04/15 04:08:01;;;;;;;6.82;3.58;;;2.90;81.30;;;;;;4906528;29;20111;-73
2021/04/15 04:10:38;;;;;;;6.53;4.35;;;2.90;81.40;;;;;;4901187;29;20029;-73
2021/04/15 04:13:25;;;;;;;6.10;4.13;;;2.80;81.50;;;;;;4898019;29;20017;-73
2021/04/15 04:15:57;;;;;;;6.97;4.18;;;2.90;81.70;;;;;;4901919;29;20033;-73
2021/04/15 04:18:29;;;;;;;4.25;3.42;;;2.80;81.40;;;;;;4897388;29;20051;-73
2021/04/15 04:21:06;;;;;;;7.72;3.92;;;2.90;81.50;;;;;;4901614;29;20060;-73
2021/04/15 04:23:43;;;;;;;9.15;3.78;;;2.90;81.50;;;;;;4902739;29;20382;-73
2021/04/15 04:26:18;;;;;;;6.40;3.78;;;2.90;81.50;;;;;;4901010;29;20668;-73
2021/04/15 04:29:01;;;;;;;6.65;3.65;;;2.80;81.50;;;;;;4903939;29;20036;-73
2021/04/15 04:31:32;;;;;;;11.38;3.70;;;2.80;81.70;;;;;;4901608;29;20052;-73
2021/04/15 04:33:58;;;;;;;9.95;3.92;;;2.80;81.60;;;;;;4902464;29;20028;-73
2021/04/15 04:36:27;;;;;;;8.50;4.03;;;2.90;81.70;;;;;;4910749;29;20040;-73
2021/04/15 04:38:55;;;;;;;9.80;4.10;;;2.90;81.70;;;;;;4887954;29;20037;-73
2021/04/15 04:41:30;;;;;;;6.13;4.03;;;2.90;81.70;;;;;;4897555;29;20175;-74
2021/04/15 04:44:01;;;;;;;9.10;5.13;;;2.90;81.90;;;;;;4911160;29;20054;-73
2021/04/15 04:46:30;;;;;;;8.35;4.43;;;3.00;81.90;;;;;;4902796;29;20032;-73
2021/04/15 04:49:06;;;;;;;9.82;4.28;;;3.00;82.00;;;;;;4902435;29;20033;-73
2021/04/15 04:51:54;;;;;;;10.20;4.22;;;3.00;82.00;;;;;;4897551;29;20104;-73
2021/04/15 04:54:21;;;;;;;6.97;4.30;;;3.00;82.10;;;;;;4904840;29;20038;-73
2021/04/15 04:56:53;;;;;;;7.10;4.32;;;3.10;82.00;;;;;;4914910;29;20584;-73
2021/04/15 04:59:48;;;;;;;8.63;4.25;;;3.10;82.10;;;;;;4897220;29;20029;-73
2021/04/15 05:02:16;;;;;;;9.73;4.72;;;3.20;82.40;;;;;;4875605;29;20067;-73
2021/04/15 05:04:43;;;;;;;9.80;4.30;;;3.20;82.20;;;;;;4891512;29;20051;-73
2021/04/15 05:07:21;;;;;;;8.25;4.03;;;3.20;82.30;;;;;;4898397;29;20590;-73
2021/04/15 05:09:47;;;;;;;8.27;4.43;;;3.20;82.50;;;;;;4902485;29;20051;-73
2021/04/15 05:12:21;;;;;;;5.50;3.92;;;3.20;82.30;;;;;;4907534;29;20103;-73
2021/04/15 05:14:50;;;;;;;7.03;4.10;;;3.30;82.30;;;;;;4909174;29;20104;-73
2021/04/15 05:17:35;;;;;;;9.68;4.55;;;3.40;82.20;;;;;;4899867;29;20040;-74
2021/04/15 05:20:04;;;;;;;9.63;4.95;;;3.50;82.30;;;;;;4901242;29;20036;-73
2021/04/15 05:22:30;;;;;;;;;;;3.50;82.00;;;;;;4912395;29;20032;-74
2021/04/15 05:25:42;;;;;;;6.47;4.15;;;3.50;81.90;;;;;;4908880;29;20289;-74
2021/04/15 05:28:12;;;;;;;8.05;4.13;;;3.60;82.10;;;;;;4874637;29;20032;-73
2021/04/15 05:30:52;;;;;;;7.88;4.38;;;3.60;81.80;;;;;;4907321;29;20099;-74
2021/04/15 05:33:23;;;;;;;8.82;4.20;;;3.70;81.80;;;;;;4902843;29;20032;-74
2021/04/15 05:36:25;;;;;;;7.75;4.13;;;3.70;81.80;;;;;;4904136;29;20031;-73
2021/04/15 05:38:53;;;;;;;6.68;4.60;;;3.80;82.00;;;;;;4915802;29;20040;-74
2021/04/15 05:41:28;;;;;;;9.60;4.15;;;3.90;81.90;;;;;;4900608;29;20064;-74
2021/04/15 05:44:06;;;;;;;11.05;4.43;;;3.90;81.90;;;;;;4903422;29;20024;-74
2021/04/15 05:46:44;;;;;;;6.85;4.13;;;4.00;82.10;;;;;;4904326;29;20036;-74
2021/04/15 05:49:17;;;;;;;5.78;2.92;;;4.10;82.00;;;;;;4910685;29;20084;-74
2021/04/15 05:51:57;;;;;;;7.25;4.28;;;4.20;81.90;;;;;;4918217;29;20075;-74
2021/04/15 05:54:24;;;;;;;10.63;7.13;;;4.30;81.90;;;;;;4910495;29;20039;-74
2021/04/15 05:56:53;;;;;;;9.07;5.30;;;4.50;81.90;;;;;;4891109;29;20084;-74
2021/04/15 05:59:54;;;;;;;11.77;6.97;;;4.60;81.80;;;;;;4899122;29;20155;-74
2021/04/15 06:02:53;;;;;;;10.75;6.78;;;4.70;82.00;;;;;;4895542;29;20078;-74
2021/04/15 06:05:28;;;;;;;9.07;6.38;;;4.80;82.00;;;;;;4908510;29;20055;-74
2021/04/15 06:07:57;;;;;;;6.38;4.32;;;4.80;82.00;;;;;;4915921;29;20482;-74
2021/04/15 06:10:27;;;;;;;11.48;4.55;;;4.90;82.20;;;;;;4918997;29;20035;-74
2021/04/15 06:13:05;;;;;;;9.60;3.92;;;4.90;82.20;;;;;;4913413;29;20060;-74
2021/04/15 06:15:52;;;;;;;5.78;4.05;;;4.90;82.40;;;;;;4900052;29;20028;-74
2021/04/15 06:18:32;;;;;;;4.82;3.83;;;5.00;82.60;;;;;;4879908;29;20033;-74
2021/04/15 06:21:20;;;;;;;5.40;3.63;;;5.00;82.50;;;;;;4887860;29;20112;-74
2021/04/15 06:24:08;;;;;;;6.82;3.90;;;5.00;82.40;;;;;;4903464;29;20438;-74
2021/04/15 06:26:46;;;;;;;8.45;3.50;;;5.10;82.40;;;;;;4901768;29;20064;-74
2021/04/15 06:29:43;;;;;;;7.18;3.10;;;5.10;82.30;;;;;;4901167;29;20020;-75
2021/04/15 06:32:31;;;;;;;6.57;2.92;;;5.20;82.20;;;;;;4881522;29;20029;-74
2021/04/15 06:34:57;;;;;;;6.47;2.78;;;5.20;81.90;;;;;;4883446;29;20040;-74
2021/04/15 06:37:49;;;;;;;4.47;2.63;;;5.40;81.70;;;;;;4898558;29;20037;-74
2021/04/15 06:40:50;;;;;;;4.88;2.30;;;5.50;81.40;;;;;;4899008;29;20055;-75
2021/04/15 06:43:39;;;;;;;4.75;2.38;;;5.70;80.90;;;;;;4883786;29;20076;-75
2021/04/15 06:46:33;;;;;;;2.60;2.15;;;5.70;80.50;;;;;;4899193;29;20044;-74
2021/04/15 06:49:12;;;;;;;5.32;1.65;;;5.90;80.50;;;;;;4901328;29;20024;-75
2021/04/15 06:52:34;;;;;;;4.45;1.83;;;6.00;80.20;;;;;;4901920;29;20095;-75
2021/04/15 06:55:05;;;;;;;3.95;2.10;;;6.30;80.00;;;;;;4859322;29;20098;-75
2021/04/15 06:57:53;;;;;;;3.42;1.95;;;6.60;79.30;;;;;;4896162;29;20047;-74
2021/04/15 07:03:59;;;;;;;6.03;2.45;;;7.10;77.70;;;;;;4881758;29;20037;-75
2021/04/15 07:06:42;;;;;;;5.80;2.22;;;7.20;77.20;;;;;;4860277;29;20041;-74
2021/04/15 07:09:35;;;;;;;4.95;1.85;;;7.20;76.60;;;;;;4860205;29;20112;-74
2021/04/15 07:12:14;;;;;;;6.10;3.40;;;7.10;76.70;;;;;;4859903;29;20449;-74
2021/04/15 07:14:58;;;;;;;4.18;2.10;;;7.00;77.10;;;;;;4843250;29;20020;-74
2021/04/15 07:17:53;;;;;;;5.97;2.55;;;6.90;77.10;;;;;;4847027;29;20463;-74
2021/04/15 07:20:53;;;;;;;4.18;2.00;;;6.80;77.40;;;;;;4859569;29;20022;-74
2021/04/15 07:23:25;;;;;;;4.55;2.47;;;6.70;77.30;;;;;;4849771;29;20034;-75
2021/04/15 07:26:07;;;;;;;4.38;2.03;;;6.70;77.70;;;;;;4861599;29;20028;-74
2021/04/15 07:29:10;;;;;;;2.55;1.90;;;6.70;77.70;;;;;;4872116;29;20086;-75
2021/04/15 07:31:59;;;;;;;7.88;2.47;;;6.80;77.70;;;;;;4842564;29;20085;-74
2021/04/15 07:34:31;;;;;;;10.05;2.63;;;6.80;77.50;;;;;;4858035;29;20514;-74
2021/04/15 07:37:19;;;;;;;3.42;2.55;;;6.80;77.50;;;;;;4861111;29;20065;-74
2021/04/15 07:40:04;;;;;;;3.92;2.42;;;6.90;77.70;;;;;;4860004;29;20041;-74
2021/04/15 07:42:40;;;;;;;4.72;2.58;;;6.90;77.30;;;;;;4859326;29;20053;-75
2021/04/15 07:45:31;;;;;;;6.38;3.33;;;6.90;77.10;;;;;;4861090;29;20034;-74
2021/04/15 07:48:31;;;;;;;4.28;2.30;;;6.90;77.40;;;;;;4859709;29;20030;-74
2021/04/15 07:51:22;;;;;;;4.85;2.63;;;6.90;77.40;;;;;;4861013;29;20053;-74
2021/04/15 07:54:13;;;;;;;6.63;3.30;;;7.00;77.50;;;;;;4859561;29;20037;-74
2021/04/15 07:57:16;;;;;;;6.78;2.90;;;7.00;77.60;;;;;;4858452;29;20606;-74
2021/04/15 07:59:51;;;;;;;9.60;3.20;;;7.20;77.70;;;;;;4855854;29;20064;-75
2021/04/15 08:02:41;;;;;;;7.85;3.10;;;7.20;77.00;;;;;;4843392;29;20034;-74
2021/04/15 08:05:12;;;;;;;;;;;7.30;77.30;;;;;;4876454;29;20052;-75
2021/04/15 08:07:59;;;;;;;5.85;2.60;;;7.50;77.00;;;;;;4893316;29;19959;-74
2021/04/15 08:10:46;;;;;;;5.20;2.65;;;7.70;76.00;;;;;;4910724;29;20035;-74
2021/04/15 08:13:37;;;;;;;4.45;2.20;;;7.80;75.50;;;;;;4904614;29;20031;-74
2021/04/15 08:16:24;;;;;;;5.93;2.20;;;7.70;76.00;;;;;;4868109;29;20486;-75
2021/04/15 08:19:33;;;;;;;4.60;2.35;;;7.80;75.30;;;;;;4913054;29;20031;-74
2021/04/15 08:22:07;;;;;;;;;;;7.90;74.20;;;;;;4913873;29;20029;-74
2021/04/15 08:25:12;;;;;;;5.15;1.60;;;7.90;73.80;;;;;;4897837;29;19915;-74
2021/04/15 08:27:49;;;;;;;5.80;1.85;;;8.00;74.10;;;;;;4877866;29;20032;-74
2021/04/15 08:30:37;;;;;;;6.47;1.90;;;7.90;73.50;;;;;;4881161;29;20038;-74
2021/04/15 08:33:05;;;;;;;4.78;2.13;;;7.90;73.30;;;;;;4896139;29;20031;-74
2021/04/15 08:35:52;;;;;;;4.45;1.77;;;7.90;73.60;;;;;;4907996;29;20028;-74
2021/04/15 08:38:57;;;;;;;4.38;1.70;;;8.00;73.40;;;;;;4896413;29;20482;-74
2021/04/15 08:41:57;;;;;;;6.35;1.75;;;8.10;73.10;;;;;;4897335;29;20112;-74
2021/04/15 08:44:41;;;;;;;5.35;1.60;;;8.10;72.00;;;;;;4887816;29;20061;-74
2021/04/15 08:47:24;;;;;;;7.80;2.03;;;8.10;71.90;;;;;;4906191;29;20115;-74
2021/04/15 08:50:04;;;;;;;5.68;2.28;;;8.10;71.80;;;;;;4883690;29;20111;-74
2021/04/15 08:52:46;;;;;;;4.32;2.10;;;8.20;71.70;;;;;;4891808;29;20040;-74
2021/04/15 08:55:36;;;;;;;5.38;1.95;;;8.20;71.80;;;;;;4897452;29;20028;-74
2021/04/15 08:58:26;;;;;;;4.32;2.00;;;8.30;71.90;;;;;;4877524;29;20025;-74
2021/04/15 09:01:15;;;;;;;3.90;1.90;;;8.50;71.60;;;;;;4898174;29;20391;-75
2021/04/15 09:03:52;;;;;;;5.60;2.20;;;8.60;71.20;;;;;;4895711;29;20024;-74
2021/04/15 09:06:38;;;;;;;7.95;2.15;;;8.60;70.90;;;;;;4908812;29;20052;-74
2021/04/15 09:09:21;;;;;;;3.33;1.70;;;8.70;70.20;;;;;;4909647;29;20120;-74
2021/04/15 09:12:18;;;;;;;5.90;1.67;;;8.70;70.20;;;;;;4897078;29;20047;-73
2021/04/15 09:15:10;;;;;;;4.70;1.42;;;8.50;69.20;;;;;;4910364;29;20036;-73
2021/04/15 09:17:44;;;;;;;4.88;1.70;;;8.30;69.40;;;;;;4916074;29;20103;-73
2021/04/15 09:20:32;;;;;;;3.83;1.50;;;8.20;69.50;;;;;;4914791;29;20498;-73
2021/04/15 09:23:18;;;;;;;6.80;1.70;;;8.10;69.60;;;;;;4915937;29;20056;-73
2021/04/15 09:25:52;;;;;;;6.15;1.95;;;8.00;69.40;;;;;;4914766;29;20292;-73
2021/04/15 09:28:40;;;;;;;5.10;1.50;;;7.90;69.60;;;;;;4905707;29;20663;-73
2021/04/15 09:31:51;;;;;;;2.50;1.33;;;8.00;69.70;;;;;;4900933;29;20032;-73
2021/04/15 09:34:44;;;;;;;3.47;1.25;;;8.10;67.70;;;;;;4903594;29;20084;-73
2021/04/15 09:37:10;;;;;;;4.78;1.27;;;8.30;67.60;;;;;;4877093;29;20510;-73
2021/04/15 09:39:38;;;;;;;2.35;1.33;;;8.60;66.80;;;;;;4909861;29;20032;-73
2021/04/15 09:42:26;;;;;;;2.67;1.00;;;8.70;65.00;;;;;;4915877;29;20020;-72
2021/04/15 09:45:10;;;;;;;3.72;1.58;;;8.90;64.40;;;;;;4914458;29;20289;-73
2021/04/15 09:47:50;;;;;;;6.95;1.75;;;9.00;63.30;;;;;;4915786;29;20035;-73
2021/04/15 09:50:34;;;;;;;3.22;1.50;;;9.10;63.40;;;;;;4903814;29;20032;-73
2021/04/15 09:53:44;;;;;;;4.72;1.73;;;9.20;63.70;;;;;;4896913;29;20384;-74
2021/04/15 09:56:31;;;;;;;4.00;2.03;;;9.30;64.10;;;;;;4868518;29;20032;-73
2021/04/15 09:59:26;;;;;;;2.33;1.30;;;9.30;63.90;;;;;;4900499;29;20017;-73
2021/04/15 10:02:03;;;;;;;6.60;1.35;;;9.40;63.90;;;;;;4900452;29;20486;-74
2021/04/15 10:04:43;;;;;;;3.67;1.70;;;9.60;63.00;;;;;;4900153;29;20033;-73
2021/04/15 10:07:19;;;;;;;3.70;1.50;;;9.70;62.20;;;;;;4914962;29;20466;-73
2021/04/15 10:09:59;;;;;;;2.38;1.20;;;10.00;61.20;;;;;;4907746;29;20027;-74
2021/04/15 10:13:02;;;;;;;3.08;1.08;;;10.30;59.80;;;;;;4888606;29;20040;-74
2021/04/15 10:15:27;;;;;;;3.65;1.20;;;10.70;59.40;;;;;;4918881;29;20035;-73
2021/04/15 10:18:08;;;;;;;2.65;1.05;;;11.10;58.50;;;;;;4919108;29;20385;-74
2021/04/15 10:20:49;;;;;;;1.40;0.90;;;11.40;56.80;;;;;;4917787;29;20028;-74
2021/04/15 10:23:39;;;;;;;3.10;1.10;;;11.30;56.90;;;;;;4918763;29;20031;-74
2021/04/15 10:26:30;;;;;;;1.95;0.80;;;11.10;56.80;;;;;;4906792;29;20463;-74
2021/04/15 10:29:38;;;;;;;1.83;0.85;;;10.80;57.50;;;;;;4898673;29;20036;-74
2021/04/15 10:32:16;;;;;;;1.50;0.70;;;10.40;58.00;;;;;;4869161;29;20530;-74
2021/04/15 10:35:07;;;;;;;2.08;0.73;;;10.10;59.00;;;;;;4909915;29;20040;-74
2021/04/15 10:38:09;;;;;;;1.42;0.60;;;10.00;59.50;;;;;;4899063;29;20495;-73
2021/04/15 10:40:52;;;;;;;1.67;0.60;;;9.90;58.70;;;;;;4881059;29;20035;-74
2021/04/15 10:43:35;;;;;;;2.92;0.73;;;9.90;59.30;;;;;;4890502;29;20032;-74
2021/04/15 10:46:40;;;;;;;4.28;1.13;;;9.80;59.10;;;;;;4899457;29;20029;-73
2021/04/15 10:49:26;;;;;;;2.13;1.00;;;9.90;59.10;;;;;;4888206;29;20043;-74
2021/04/15 10:52:01;;;;;;;1.08;0.95;;;9.90;59.40;;;;;;4898965;29;20056;-74
2021/04/15 10:54:34;;;;;;;1.95;1.20;;;10.00;59.60;;;;;;4899550;29;20183;-74
2021/04/15 10:57:13;;;;;;;2.25;1.10;;;10.10;59.50;;;;;;4899319;29;20048;-73
2021/04/15 10:59:42;;;;;;;2.40;0.98;;;10.20;58.90;;;;;;4899187;29;20028;-73
2021/04/15 11:02:24;;;;;;;1.88;1.02;;;10.50;58.50;;;;;;4898888;29;20040;-74
2021/04/15 11:04:52;;;;;;;2.45;1.10;;;11.20;58.00;;;;;;4896805;29;20072;-74
2021/04/15 11:07:27;;;;;;;2.53;0.88;;;11.70;57.00;;;;;;4904833;29;20052;-74
2021/04/15 11:09:56;;;;;;;2.42;1.10;;;12.30;55.70;;;;;;4899009;29;20056;-74
2021/04/15 11:12:24;;;;;;;2.10;1.17;;;12.80;54.60;;;;;;4911693;29;20028;-74
2021/04/15 11:14:49;;;;;;;3.70;1.10;;;13.10;53.90;;;;;;4903716;29;20126;-74
2021/04/15 11:17:21;;;;;;;3.80;1.20;;;13.40;53.00;;;;;;4897588;29;20123;-74
2021/04/15 11:19:47;;;;;;;3.80;1.60;;;13.50;53.10;;;;;;4898785;29;20033;-74
2021/04/15 11:22:21;;;;;;;2.67;1.65;;;13.60;52.80;;;;;;4897494;29;20119;-75
2021/04/15 11:24:48;;;;;;;3.42;1.50;;;13.40;52.70;;;;;;4898711;29;20061;-74
2021/04/15 11:27:33;;;;;;;3.00;1.60;;;13.10;53.40;;;;;;4898588;29;20036;-74
2021/04/15 11:29:59;;;;;;;2.42;1.55;;;12.70;53.60;;;;;;4898615;29;20028;-73
2021/04/15 11:32:34;;;;;;;3.53;2.00;;;12.30;53.80;;;;;;4897548;29;20059;-74
2021/04/15 11:35:05;;;;;;;3.50;1.60;;;12.00;54.30;;;;;;4897523;29;20040;-75
2021/04/15 11:37:31;;;;;;;2.03;1.30;;;12.30;54.80;;;;;;4899259;29;20043;-75
2021/04/15 11:40:14;;;;;;;2.92;1.40;;;12.90;53.70;;;;;;4879000;29;20044;-75
2021/04/15 11:42:41;;;;;;;3.88;1.70;;;13.20;52.20;;;;;;4898720;29;20032;-75
2021/04/15 11:45:09;;;;;;;3.72;1.70;;;13.10;51.10;;;;;;4898556;29;20037;-75
2021/04/15 11:47:35;;;;;;;2.72;1.40;;;12.80;51.00;;;;;;4897791;29;20052;-76
2021/04/15 11:50:26;;;;;;;1.42;1.13;;;12.60;50.60;;;;;;4889945;29;20459;-74
2021/04/15 11:52:54;;;;;;;3.22;1.30;;;12.30;50.00;;;;;;4882972;29;20048;-75
2021/04/15 11:55:31;;;;;;;4.68;1.40;;;12.20;50.90;;;;;;4897287;29;20048;-73
2021/04/15 11:58:01;;;;;;;3.70;1.52;;;12.10;50.70;;;;;;4897905;29;20478;-74
2021/04/15 12:00:34;;;;;;;6.80;2.67;;;12.00;50.30;;;;;;4897958;29;20164;-74
2021/04/15 12:02:59;;;;;;;2.75;1.52;;;11.80;50.00;;;;;;4896888;29;20372;-74
2021/04/15 12:05:32;;;;;;;3.28;1.45;;;11.90;49.50;;;;;;4896601;29;20052;-74
2021/04/15 12:08:03;;;;;;;3.65;1.75;;;12.10;49.70;;;;;;4896668;29;20051;-74
2021/04/15 12:10:32;;;;;;;3.75;1.45;;;12.30;49.50;;;;;;4901014;29;20503;-74
2021/04/15 12:13:08;;;;;;;3.28;1.27;;;12.20;49.40;;;;;;4916984;29;20024;-73
2021/04/15 12:15:38;;;;;;;4.43;1.60;;;12.00;49.20;;;;;;4916903;29;20031;-73
2021/04/15 12:18:08;;;;;;;3.60;1.50;;;11.70;49.40;;;;;;4916853;29;20414;-73
2021/04/15 12:20:49;;;;;;;3.33;1.50;;;11.40;49.50;;;;;;4912761;29;20036;-73
2021/04/15 12:23:45;;;;;;;5.20;2.03;;;11.10;50.20;;;;;;4897860;29;20168;-74
2021/04/15 12:26:31;;;;;;;3.05;1.40;;;10.90;51.10;;;;;;4896555;29;20028;-74
2021/04/15 12:29:06;;;;;;;2.53;1.30;;;10.90;51.10;;;;;;4883544;29;20032;-74
2021/04/15 12:31:53;;;;;;;4.57;1.77;;;10.80;50.90;;;;;;4897716;29;20025;-73
2021/04/15 12:34:28;;;;;;;2.00;1.45;;;10.80;50.60;;;;;;4894118;29;20029;-74
2021/04/15 12:37:17;;;;;;;2.08;1.60;;;10.90;50.90;;;;;;4897415;29;20391;-74
2021/04/15 12:45:41;;;;;;;2.17;1.60;;;12.70;48.30;;;;;;4879488;29;20037;-74
2021/04/15 12:48:10;;;;;;;4.03;1.48;;;13.20;47.60;;;;;;4896737;29;20104;-74
2021/04/15 12:50:36;;;;;;;4.55;1.30;;;13.70;46.70;;;;;;4897591;29;20027;-74
2021/04/15 12:53:05;;;;;;;1.90;0.93;;;13.90;46.30;;;;;;4896661;29;20044;-74
2021/04/15 12:55:30;;;;;;;3.97;1.27;;;13.80;45.00;;;;;;4897059;29;20028;-74
2021/04/15 12:57:57;;;;;;;2.17;1.10;;;13.70;43.90;;;;;;4880309;29;20112;-74
2021/04/15 13:00:37;;;;;;;3.92;1.80;;;13.90;44.90;;;;;;4899589;29;20028;-74
2021/04/15 13:03:19;;;;;;;5.55;1.45;;;14.30;42.80;;;;;;4897139;29;20033;-75
2021/04/15 13:05:59;;;;;;;3.10;1.40;;;14.30;42.10;;;;;;4897065;29;20056;-75
2021/04/15 13:08:42;;;;;;;3.42;1.38;;;14.00;42.50;;;;;;4896967;29;20056;-75
2021/04/15 13:11:16;;;;;;;5.43;1.30;;;13.60;43.30;;;;;;4895971;29;20081;-75
2021/04/15 13:13:53;;;;;;;2.55;1.20;;;13.50;43.60;;;;;;4900432;29;20382;-75
2021/04/15 13:16:34;;;;;;;3.17;1.40;;;13.30;43.90;;;;;;4916170;29;20028;-75
2021/04/15 13:19:18;;;;;;;4.97;1.27;;;13.00;44.00;;;;;;4900365;29;20039;-75
2021/04/15 13:22:18;;;;;;;2.65;1.30;;;12.80;45.00;;;;;;4895676;29;20550;-75
2021/04/15 13:24:43;;;;;;;4.07;1.10;;;12.50;44.50;;;;;;4896493;29;20032;-75
2021/04/15 13:27:38;;;;;;;4.13;1.40;;;12.40;45.10;;;;;;4896837;29;20043;-75
2021/04/15 13:30:15;;;;;;;2.05;1.15;;;12.20;44.90;;;;;;4899382;29;20032;-75
2021/04/15 13:33:09;;;;;;;3.05;1.15;;;12.10;45.50;;;;;;4896311;29;20021;-75
2021/04/15 13:36:15;;;;;;;2.55;1.48;;;12.30;45.60;;;;;;4901008;29;20116;-74
2021/04/15 13:38:53;;;;;;;3.38;1.23;;;12.80;44.10;;;;;;4903193;29;20455;-75
2021/04/15 13:41:25;;;;;;;4.10;1.35;;;13.20;43.30;;;;;;4900716;29;20032;-74
2021/04/15 13:43:59;;;;;;;2.47;1.30;;;13.50;42.50;;;;;;4900740;29;20487;-74
2021/04/15 13:46:25;;;;;;;1.70;1.30;;;13.80;41.80;;;;;;4900334;29;20047;-74
2021/04/15 13:48:57;;;;;;;2.22;1.27;;;14.10;41.60;;;;;;4900671;29;20393;-75
2021/04/15 13:51:44;;;;;;;4.72;1.65;;;14.30;41.30;;;;;;4904036;29;20024;-74
2021/04/15 13:54:21;;;;;;;5.55;1.45;;;14.30;41.30;;;;;;4893335;29;20039;-74
2021/04/15 13:56:49;;;;;;;2.80;1.30;;;14.10;42.00;;;;;;4900224;29;20047;-74
2021/04/15 13:59:35;;;;;;;4.57;1.38;;;14.00;42.40;;;;;;4907734;29;20031;-74
2021/04/15 14:02:10;;;;;;;2.30;1.20;;;13.70;42.50;;;;;;4905860;29;20115;-74
2021/04/15 14:07:54;;;;;;;2.67;1.30;;;13.00;42.90;;;;;;4900383;29;20558;-74
2021/04/15 14:10:37;;;;;;;4.55;1.67;;;12.60;42.90;;;;;;4893377;29;20025;-73